Time;durP1;ratioP1;P1;durP2;ratioP2;P2;SDS_P1;SDS_P2;PMS_P1;PMS_P2;Temp;Humidity;BMP_temperature;BMP_pressure;BME280_temperature;BME280_humidity;BME280_pressure;Samples;Min_cycle;Max_cycle;Signal;HPM_P1;HPM_P2
2022/06/21 00:00:33;;;;;;;1.58;1.27;;;;;;;;;;5072818;28;20225;-83
2022/06/21 00:03:06;;;;;;;1.88;1.40;;;;;;;;;;5072662;28;20591;-82
2022/06/21 00:05:37;;;;;;;2.00;1.33;;;;;;;;;;5073690;28;20204;-83
2022/06/21 00:08:08;;;;;;;1.02;1.02;;;;;;;;;;5072861;28;20703;-82
2022/06/21 00:10:36;;;;;;;1.25;1.15;;;;;;;;;;5072357;28;20241;-83
2022/06/21 00:13:07;;;;;;;1.73;1.38;;;;;;;;;;5072284;28;20197;-83
2022/06/21 00:15:35;;;;;;;3.03;1.20;;;;;;;;;;5073119;28;20239;-82
2022/06/21 00:18:02;;;;;;;1.67;1.30;;;;;;;;;;5072928;28;20202;-82
2022/06/21 00:20:30;;;;;;;3.42;1.80;;;;;;;;;;5072985;28;20316;-82
2022/06/21 00:22:58;;;;;;;1.75;1.38;;;;;;;;;;5071832;28;20212;-83
2022/06/21 00:25:28;;;;;;;1.52;1.30;;;;;;;;;;5071613;28;20244;-82
2022/06/21 00:27:56;;;;;;;1.73;1.63;;;;;;;;;;5072712;28;20296;-82
2022/06/21 00:30:25;;;;;;;1.27;1.25;;;;;;;;;;5072686;28;20295;-82
2022/06/21 00:32:55;;;;;;;2.72;1.48;;;;;;;;;;5072018;28;20246;-82
2022/06/21 00:35:25;;;;;;;1.42;1.33;;;;;;;;;;5075736;28;20290;-82
2022/06/21 00:37:52;;;;;;;2.13;1.58;;;;;;;;;;5076328;28;20658;-82
2022/06/21 00:40:26;;;;;;;1.98;1.45;;;;;;;;;;5076258;28;20299;-82
2022/06/21 00:42:57;;;;;;;3.58;1.85;;;;;;;;;;5075677;28;20241;-83
2022/06/21 00:45:34;;;;;;;2.83;2.08;;;;;;;;;;5076392;28;20201;-82
2022/06/21 00:48:09;;;;;;;1.67;1.58;;;;;;;;;;5076331;28;20236;-82
2022/06/21 00:50:40;;;;;;;1.50;1.38;;;;;;;;;;5076512;28;20650;-82
2022/06/21 00:53:13;;;;;;;1.42;1.33;;;;;;;;;;5074826;28;20204;-82
2022/06/21 00:55:48;;;;;;;1.00;1.00;;;;;;;;;;5075899;28;20201;-82
2022/06/21 00:58:18;;;;;;;1.40;1.30;;;;;;;;;;5075485;28;20631;-82
2022/06/21 01:00:56;;;;;;;1.95;1.42;;;;;;;;;;5075954;28;20306;-82
2022/06/21 01:03:26;;;;;;;4.55;1.80;;;;;;;;;;5075217;28;20228;-82
2022/06/21 01:05:56;;;;;;;3.38;2.10;;;;;;;;;;5075538;28;20236;-82
2022/06/21 01:08:31;;;;;;;2.35;1.70;;;;;;;;;;5076095;28;20248;-82
2022/06/21 01:11:05;;;;;;;4.68;2.17;;;;;;;;;;5075652;28;20287;-82
2022/06/21 01:13:36;;;;;;;2.10;1.90;;;;;;;;;;5075343;28;20292;-82
2022/06/21 01:16:05;;;;;;;3.15;1.95;;;;;;;;;;5075322;28;20239;-82
2022/06/21 01:18:32;;;;;;;2.40;1.85;;;;;;;;;;5075471;28;20263;-82
2022/06/21 01:21:02;;;;;;;2.33;1.33;;;;;;;;;;5075583;28;20649;-82
2022/06/21 01:23:47;;;;;;;1.65;1.55;;;;;;;;;;5074600;28;20661;-82
2022/06/21 01:26:48;;;;;;;2.28;1.75;;;;;;;;;;5075564;28;20291;-82
2022/06/21 01:29:19;;;;;;;2.28;1.50;;;;;;;;;;5070236;28;20238;-82
2022/06/21 01:31:48;;;;;;;2.45;1.77;;;;;;;;;;5074487;28;20251;-82
2022/06/21 01:34:23;;;;;;;2.17;1.50;;;;;;;;;;5074966;28;20201;-82
2022/06/21 01:36:54;;;;;;;2.30;1.80;;;;;;;;;;5075117;28;20239;-82
2022/06/21 01:39:27;;;;;;;2.20;2.00;;;;;;;;;;5075432;28;20249;-82
2022/06/21 01:42:01;;;;;;;4.10;1.88;;;;;;;;;;5074201;28;20263;-82
2022/06/21 01:44:32;;;;;;;1.73;1.63;;;;;;;;;;5075022;28;20193;-82
2022/06/21 01:47:04;;;;;;;2.78;1.60;;;;;;;;;;5074529;28;20236;-81
2022/06/21 01:49:35;;;;;;;1.80;1.70;;;;;;;;;;5075306;28;20213;-82
2022/06/21 01:52:07;;;;;;;1.65;1.45;;;;;;;;;;5074742;28;20696;-82
2022/06/21 01:54:39;;;;;;;3.63;2.22;;;;;;;;;;5075414;28;20700;-82
2022/06/21 01:57:09;;;;;;;2.42;1.70;;;;;;;;;;5074886;28;20624;-81
2022/06/21 01:59:42;;;;;;;2.05;1.92;;;;;;;;;;5074614;28;20259;-82
2022/06/21 02:02:13;;;;;;;2.15;1.40;;;;;;;;;;5073894;28;20623;-82
2022/06/21 02:04:45;;;;;;;1.70;1.60;;;;;;;;;;5074602;28;20297;-82
2022/06/21 02:07:19;;;;;;;1.65;1.55;;;;;;;;;;5074230;28;20228;-82
2022/06/21 02:09:51;;;;;;;4.50;1.83;;;;;;;;;;5074424;28;20239;-82
2022/06/21 02:12:19;;;;;;;2.25;2.00;;;;;;;;;;5073518;28;20197;-82
2022/06/21 02:14:54;;;;;;;2.60;2.10;;;;;;;;;;5074250;28;20233;-82
2022/06/21 02:17:27;;;;;;;4.82;2.22;;;;;;;;;;5074075;28;20228;-82
2022/06/21 02:20:01;;;;;;;2.15;1.92;;;;;;;;;;5073940;28;20255;-82
2022/06/21 02:22:31;;;;;;;3.45;1.90;;;;;;;;;;5073359;28;20562;-82
2022/06/21 02:24:59;;;;;;;3.35;1.75;;;;;;;;;;5074526;28;20649;-82
2022/06/21 02:27:34;;;;;;;1.60;1.48;;;;;;;;;;5073923;28;20284;-82
2022/06/21 02:30:09;;;;;;;2.35;1.45;;;;;;;;;;5073618;28;20267;-82
2022/06/21 02:32:39;;;;;;;2.92;1.50;;;;;;;;;;5073940;28;20204;-82
2022/06/21 02:35:16;;;;;;;2.83;1.70;;;;;;;;;;5073886;28;20295;-81
2022/06/21 02:37:44;;;;;;;1.23;1.05;;;;;;;;;;5073701;28;20708;-82
2022/06/21 02:40:21;;;;;;;1.23;1.13;;;;;;;;;;5072847;28;20275;-82
2022/06/21 02:42:52;;;;;;;1.30;1.20;;;;;;;;;;5072475;28;20682;-82
2022/06/21 02:45:26;;;;;;;1.10;1.10;;;;;;;;;;5073255;28;20678;-82
2022/06/21 02:47:54;;;;;;;1.52;1.35;;;;;;;;;;5073213;28;20201;-82
2022/06/21 02:50:34;;;;;;;1.50;1.40;;;;;;;;;;5073507;28;20228;-82
2022/06/21 02:53:05;;;;;;;2.80;1.35;;;;;;;;;;5072856;28;20207;-82
2022/06/21 02:55:40;;;;;;;1.40;1.30;;;;;;;;;;5073801;28;20217;-82
2022/06/21 02:58:16;;;;;;;1.83;1.70;;;;;;;;;;5073266;28;20214;-82
2022/06/21 03:00:44;;;;;;;2.75;1.60;;;;;;;;;;5074012;28;20258;-82
2022/06/21 03:03:18;;;;;;;1.90;1.80;;;;;;;;;;5072752;28;20236;-82
2022/06/21 03:05:48;;;;;;;1.35;1.30;;;;;;;;;;5073567;28;20197;-82
2022/06/21 03:08:16;;;;;;;1.58;1.48;;;;;;;;;;5073699;28;20248;-82
2022/06/21 03:10:46;;;;;;;1.13;1.10;;;;;;;;;;5073036;28;20283;-82
2022/06/21 03:13:19;;;;;;;1.00;1.00;;;;;;;;;;5072716;28;20232;-82
2022/06/21 03:15:51;;;;;;;1.20;1.20;;;;;;;;;;5073532;28;20288;-81
2022/06/21 03:18:25;;;;;;;0.95;0.95;;;;;;;;;;5073254;28;20232;-82
2022/06/21 03:20:53;;;;;;;1.48;1.00;;;;;;;;;;5073408;28;20240;-82
2022/06/21 03:23:22;;;;;;;1.17;1.08;;;;;;;;;;5072773;28;20673;-82
2022/06/21 03:25:53;;;;;;;1.25;1.15;;;;;;;;;;5073149;28;20236;-82
2022/06/21 03:28:30;;;;;;;1.88;1.60;;;;;;;;;;5073250;28;20308;-82
2022/06/21 03:31:08;;;;;;;1.35;1.25;;;;;;;;;;5073297;28;20703;-82
2022/06/21 03:33:37;;;;;;;1.75;1.42;;;;;;;;;;5072380;28;20207;-82
2022/06/21 03:36:09;;;;;;;1.38;1.27;;;;;;;;;;5073660;28;20232;-82
2022/06/21 03:38:39;;;;;;;1.00;1.00;;;;;;;;;;5073107;28;20263;-82
2022/06/21 03:43:58;;;;;;;1.23;1.02;;;;;;;;;;5072261;28;20203;-82
2022/06/21 03:46:30;;;;;;;0.80;0.80;;;;;;;;;;5073064;28;20266;-82
2022/06/21 03:49:07;;;;;;;1.20;1.00;;;;;;;;;;5072819;28;20255;-82
2022/06/21 03:51:39;;;;;;;1.15;1.05;;;;;;;;;;5072388;28;20197;-82
2022/06/21 03:54:12;;;;;;;1.15;1.13;;;;;;;;;;5073184;28;20296;-82
2022/06/21 03:56:45;;;;;;;1.42;1.30;;;;;;;;;;5073165;28;20208;-82
2022/06/21 03:59:22;;;;;;;1.23;1.13;;;;;;;;;;5073727;28;20312;-83
2022/06/21 04:01:56;;;;;;;1.45;1.35;;;;;;;;;;5072721;28;20347;-83
2022/06/21 04:04:30;;;;;;;1.98;1.20;;;;;;;;;;5073498;28;20625;-82
2022/06/21 04:07:03;;;;;;;2.22;1.40;;;;;;;;;;5073064;28;20197;-82
2022/06/21 04:09:42;;;;;;;2.80;1.35;;;;;;;;;;5075832;28;20295;-82
2022/06/21 04:12:16;;;;;;;1.33;1.23;;;;;;;;;;5056222;28;20739;-82
2022/06/21 04:14:48;;;;;;;1.10;1.10;;;;;;;;;;5056818;28;20283;-82
2022/06/21 04:17:21;;;;;;;1.10;1.00;;;;;;;;;;5057177;28;20197;-82
2022/06/21 04:19:52;;;;;;;1.08;1.08;;;;;;;;;;5057219;28;20317;-82
2022/06/21 04:22:27;;;;;;;2.05;1.20;;;;;;;;;;5056468;28;20225;-83
2022/06/21 04:25:02;;;;;;;1.20;1.20;;;;;;;;;;5056737;28;20208;-82
2022/06/21 04:27:35;;;;;;;2.17;1.58;;;;;;;;;;5056439;28;20616;-82
2022/06/21 04:30:07;;;;;;;1.35;1.30;;;;;;;;;;5056868;28;20684;-82
2022/06/21 04:32:40;;;;;;;1.50;1.40;;;;;;;;;;5055723;28;20198;-82
2022/06/21 04:35:12;;;;;;;1.50;1.40;;;;;;;;;;5056555;28;20289;-82
2022/06/21 04:37:45;;;;;;;1.30;1.20;;;;;;;;;;5056036;28;20244;-82
2022/06/21 04:40:18;;;;;;;1.42;1.33;;;;;;;;;;5060835;28;20225;-82
2022/06/21 04:42:51;;;;;;;1.00;1.00;;;;;;;;;;5076277;28;20316;-83
2022/06/21 04:45:27;;;;;;;0.90;0.90;;;;;;;;;;5076077;28;20215;-82
2022/06/21 04:48:09;;;;;;;1.50;1.40;;;;;;;;;;5076352;28;20264;-82
2022/06/21 04:50:40;;;;;;;2.05;1.50;;;;;;;;;;5076192;28;20257;-82
2022/06/21 04:53:16;;;;;;;1.70;1.60;;;;;;;;;;5076283;28;20201;-81
2022/06/21 04:55:50;;;;;;;2.10;2.00;;;;;;;;;;5076111;28;20587;-81
2022/06/21 04:58:18;;;;;;;1.90;1.63;;;;;;;;;;5075742;28;20803;-82
2022/06/21 05:00:47;;;;;;;1.58;1.40;;;;;;;;;;5076264;28;20259;-82
2022/06/21 05:03:30;;;;;;;4.07;2.78;;;;;;;;;;5075356;28;20664;-82
2022/06/21 05:05:59;;;;;;;2.00;1.80;;;;;;;;;;5076850;28;20197;-81
2022/06/21 05:08:26;;;;;;;2.22;1.95;;;;;;;;;;5075684;28;20288;-82
2022/06/21 05:10:57;;;;;;;2.05;1.63;;;;;;;;;;5075539;28;20292;-82
2022/06/21 05:13:28;;;;;;;2.38;1.92;;;;;;;;;;5075172;28;20203;-82
2022/06/21 05:15:59;;;;;;;2.30;1.92;;;;;;;;;;5076425;28;20201;-82
2022/06/21 05:18:34;;;;;;;1.80;1.70;;;;;;;;;;5076376;28;20665;-82
2022/06/21 05:21:04;;;;;;;1.70;1.60;;;;;;;;;;5075585;28;20296;-82
2022/06/21 05:23:32;;;;;;;1.92;1.83;;;;;;;;;;5075651;28;20615;-82
2022/06/21 05:26:05;;;;;;;1.95;1.80;;;;;;;;;;5076234;28;20673;-82
2022/06/21 05:28:38;;;;;;;1.35;1.35;;;;;;;;;;5075611;28;20312;-82
2022/06/21 05:31:14;;;;;;;3.05;1.60;;;;;;;;;;5075513;28;20209;-82
2022/06/21 05:33:44;;;;;;;2.28;2.08;;;;;;;;;;5074370;28;20208;-82
2022/06/21 05:36:16;;;;;;;2.63;1.80;;;;;;;;;;5076482;28;20197;-82
2022/06/21 05:38:53;;;;;;;2.50;2.30;;;;;;;;;;5098367;23;20275;-79
2022/06/21 05:41:33;;;;;;;1.95;1.85;;;;;;;;;;5055385;28;20289;-79
2022/06/21 05:44:03;;;;;;;2.30;2.10;;;;;;;;;;5055673;28;20274;-79
2022/06/21 05:46:36;;;;;;;2.67;1.77;;;;;;;;;;5055992;28;20201;-78
2022/06/21 05:49:08;;;;;;;3.38;2.80;;;;;;;;;;5055995;28;20627;-78
2022/06/21 05:51:36;;;;;;;1.60;1.50;;;;;;;;;;5056225;28;20284;-80
2022/06/21 05:54:07;;;;;;;2.63;2.30;;;;;;;;;;5056988;28;20205;-80
2022/06/21 05:56:37;;;;;;;4.47;2.28;;;;;;;;;;5057960;28;20693;-80
2022/06/21 05:59:07;;;;;;;2.20;2.10;;;;;;;;;;5056960;28;20204;-79
2022/06/21 06:01:41;;;;;;;2.50;2.30;;;;;;;;;;5056911;28;20627;-80
2022/06/21 06:04:12;;;;;;;2.47;1.88;;;;;;;;;;5056966;28;20220;-80
2022/06/21 06:06:43;;;;;;;2.35;2.15;;;;;;;;;;5056776;28;20308;-80
2022/06/21 06:09:14;;;;;;;2.25;1.50;;;;;;;;;;5055862;28;20208;-79
2022/06/21 06:12:00;;;;;;;3.10;2.58;;;;;;;;;;5070427;28;20208;-79
2022/06/21 06:14:37;;;;;;;2.33;2.00;;;;;;;;;;5076125;28;20653;-80
2022/06/21 06:17:13;;;;;;;1.60;1.50;;;;;;;;;;5077297;28;20269;-80
2022/06/21 06:19:46;;;;;;;1.85;1.75;;;;;;;;;;5076899;28;20733;-79
2022/06/21 06:22:21;;;;;;;2.67;2.45;;;;;;;;;;5076173;28;20288;-80
2022/06/21 06:24:55;;;;;;;1.52;1.42;;;;;;;;;;5076335;28;20709;-79
2022/06/21 06:27:39;;;;;;;3.53;2.17;;;;;;;;;;5075076;28;20285;-80
2022/06/21 06:30:11;;;;;;;2.33;2.13;;;;;;;;;;5075954;28;20292;-79
2022/06/21 06:32:43;;;;;;;2.33;1.90;;;;;;;;;;5075043;28;20255;-80
2022/06/21 06:35:18;;;;;;;3.75;2.05;;;;;;;;;;5075656;28;20228;-80
2022/06/21 06:37:46;;;;;;;2.25;2.00;;;;;;;;;;5075259;28;20274;-80
2022/06/21 06:40:22;;;;;;;2.13;1.92;;;;;;;;;;5074506;28;20209;-80
2022/06/21 06:42:55;;;;;;;2.15;1.65;;;;;;;;;;5074808;28;20252;-80
2022/06/21 06:45:26;;;;;;;2.08;1.77;;;;;;;;;;5074761;28;20681;-79
2022/06/21 06:48:03;;;;;;;2.30;2.10;;;;;;;;;;5075271;28;20224;-79
2022/06/21 06:50:36;;;;;;;2.05;1.85;;;;;;;;;;5076097;28;20185;-80
2022/06/21 06:53:10;;;;;;;2.20;2.10;;;;;;;;;;5075320;28;20201;-80
2022/06/21 06:55:42;;;;;;;2.33;1.92;;;;;;;;;;5075558;28;20240;-80
2022/06/21 06:58:18;;;;;;;1.85;1.75;;;;;;;;;;5075540;28;20221;-80
2022/06/21 07:00:50;;;;;;;4.07;2.42;;;;;;;;;;5075425;28;20280;-81
2022/06/21 07:03:21;;;;;;;3.22;2.10;;;;;;;;;;5075600;28;20283;-80
2022/06/21 07:05:53;;;;;;;1.40;1.30;;;;;;;;;;5075848;28;20281;-80
2022/06/21 07:08:26;;;;;;;1.27;1.20;;;;;;;;;;5076050;28;20225;-79
2022/06/21 07:10:57;;;;;;;3.22;2.40;;;;;;;;;;5075325;28;20292;-80
2022/06/21 07:13:25;;;;;;;3.00;2.08;;;;;;;;;;5074656;28;20197;-80
2022/06/21 07:15:55;;;;;;;2.25;1.80;;;;;;;;;;5074508;28;20201;-80
2022/06/21 07:18:30;;;;;;;2.60;1.73;;;;;;;;;;5074519;28;20324;-80
2022/06/21 07:20:58;;;;;;;2.10;1.50;;;;;;;;;;5075691;28;20228;-81
2022/06/21 07:23:28;;;;;;;3.03;2.58;;;;;;;;;;5074585;28;20307;-80
2022/06/21 07:26:00;;;;;;;2.83;1.90;;;;;;;;;;5074461;28;20283;-80
2022/06/21 07:28:33;;;;;;;2.15;1.92;;;;;;;;;;5075019;28;20227;-79
2022/06/21 07:31:05;;;;;;;2.45;2.00;;;;;;;;;;5075386;28;20232;-80
2022/06/21 07:33:37;;;;;;;2.22;1.70;;;;;;;;;;5074589;28;20280;-80
2022/06/21 07:36:09;;;;;;;1.42;1.33;;;;;;;;;;5074647;28;20719;-80
2022/06/21 07:38:43;;;;;;;1.90;1.77;;;;;;;;;;5074284;28;20285;-79
2022/06/21 07:41:15;;;;;;;1.60;1.50;;;;;;;;;;5074503;28;20200;-80
2022/06/21 07:43:46;;;;;;;1.88;1.65;;;;;;;;;;5076516;28;20220;-79
2022/06/21 07:46:19;;;;;;;2.08;1.67;;;;;;;;;;5076925;28;20284;-80
2022/06/21 07:48:52;;;;;;;1.98;1.70;;;;;;;;;;5079277;28;20657;-80
2022/06/21 07:51:22;;;;;;;2.42;1.80;;;;;;;;;;5078502;28;20201;-80
2022/06/21 07:53:54;;;;;;;2.75;1.60;;;;;;;;;;5078832;28;20215;-80
2022/06/21 07:56:27;;;;;;;3.65;1.67;;;;;;;;;;5078533;28;20687;-81
2022/06/21 07:58:58;;;;;;;1.60;1.50;;;;;;;;;;5078934;28;20233;-81
2022/06/21 08:07:20;;;;;;;1.02;1.02;;;;;;;;;;5078438;28;20593;-81
2022/06/21 08:09:51;;;;;;;1.73;1.40;;;;;;;;;;5078240;28;20713;-81
2022/06/21 08:12:19;;;;;;;1.15;1.15;;;;;;;;;;5076894;28;20208;-81
2022/06/21 08:14:47;;;;;;;1.63;1.50;;;;;;;;;;5078512;28;20283;-81
2022/06/21 08:17:22;;;;;;;4.47;1.88;;;;;;;;;;5077212;28;20665;-80
2022/06/21 08:19:57;;;;;;;2.25;1.70;;;;;;;;;;5078255;28;20200;-80
2022/06/21 08:22:30;;;;;;;1.45;1.33;;;;;;;;;;5077041;28;20231;-81
2022/06/21 08:25:01;;;;;;;1.60;1.50;;;;;;;;;;5077486;28;20589;-81
2022/06/21 08:27:36;;;;;;;2.33;1.42;;;;;;;;;;5077453;28;20232;-80
2022/06/21 08:30:11;;;;;;;1.52;1.23;;;;;;;;;;5077632;28;20276;-81
2022/06/21 08:32:49;;;;;;;1.42;1.33;;;;;;;;;;5077438;28;20286;-81
2022/06/21 08:35:23;;;;;;;1.20;1.10;;;;;;;;;;5077800;28;20213;-81
2022/06/21 08:37:56;;;;;;;1.60;1.50;;;;;;;;;;5077373;28;20224;-80
2022/06/21 08:41:08;;;;;;;1.38;1.27;;;;;;;;;;5076423;28;20267;-81
2022/06/21 08:44:12;;;;;;;1.90;1.50;;;;;;;;;;5072285;28;20629;-80
2022/06/21 08:47:48;;;;;;;1.48;1.38;;;;;;;;;;5036172;28;20303;-80
2022/06/21 08:50:43;;;;;;;1.58;1.48;;;;;;;;;;5014373;28;20308;-81
2022/06/21 08:53:29;;;;;;;1.70;1.52;;;;;;;;;;5077203;28;20280;-81
2022/06/21 08:56:02;;;;;;;1.65;1.13;;;;;;;;;;5075430;28;20661;-81
2022/06/21 08:58:45;;;;;;;1.38;1.10;;;;;;;;;;5076533;28;20288;-81
2022/06/21 09:01:21;;;;;;;1.35;1.23;;;;;;;;;;5077046;28;20667;-80
2022/06/21 09:04:17;;;;;;;1.70;1.40;;;;;;;;;;5076329;28;20197;-80
2022/06/21 09:07:08;;;;;;;1.98;1.13;;;;;;;;;;5074188;28;20731;-80
2022/06/21 09:09:55;;;;;;;1.65;1.55;;;;;;;;;;5077298;28;20291;-80
2022/06/21 09:12:31;;;;;;;2.83;1.50;;;;;;;;;;5076561;28;20236;-80
2022/06/21 09:15:34;;;;;;;1.20;1.13;;;;;;;;;;5077727;28;20203;-80
2022/06/21 09:18:20;;;;;;;1.60;1.50;;;;;;;;;;5076630;28;20259;-80
2022/06/21 09:20:56;;;;;;;1.20;1.10;;;;;;;;;;5076463;28;20283;-80
2022/06/21 09:23:55;;;;;;;1.55;1.45;;;;;;;;;;5076099;28;20284;-81
2022/06/21 09:26:33;;;;;;;1.58;1.40;;;;;;;;;;5076231;28;20280;-81
2022/06/21 09:29:13;;;;;;;1.70;1.60;;;;;;;;;;5075997;28;20201;-81
2022/06/21 09:31:58;;;;;;;1.13;1.13;;;;;;;;;;5075495;28;20196;-81
2022/06/21 09:34:33;;;;;;;1.65;1.55;;;;;;;;;;5075717;28;20737;-80
2022/06/21 09:37:06;;;;;;;1.00;1.00;;;;;;;;;;5076425;28;20220;-81
2022/06/21 09:39:46;;;;;;;2.08;1.52;;;;;;;;;;5075048;28;20237;-80
2022/06/21 09:42:22;;;;;;;1.00;1.00;;;;;;;;;;5075580;28;20211;-80
2022/06/21 09:44:57;;;;;;;1.27;1.10;;;;;;;;;;5075570;28;20748;-80
2022/06/21 09:47:33;;;;;;;1.27;1.17;;;;;;;;;;5076213;28;20686;-79
2022/06/21 09:50:07;;;;;;;1.58;1.25;;;;;;;;;;5075737;28;20283;-79
2022/06/21 09:52:42;;;;;;;1.00;1.00;;;;;;;;;;5075352;28;20200;-80
2022/06/21 09:55:24;;;;;;;1.75;0.98;;;;;;;;;;5076450;28;20325;-80
2022/06/21 09:58:02;;;;;;;0.98;0.98;;;;;;;;;;5076814;28;20259;-80
2022/06/21 10:00:38;;;;;;;1.95;1.52;;;;;;;;;;5076236;28;20243;-80
2022/06/21 10:03:21;;;;;;;1.25;0.93;;;;;;;;;;5076255;28;20569;-80
2022/06/21 10:05:54;;;;;;;1.30;1.20;;;;;;;;;;5076326;28;20228;-80
2022/06/21 10:08:54;;;;;;;1.10;1.05;;;;;;;;;;5075730;28;20221;-80
2022/06/21 10:11:32;;;;;;;1.30;0.82;;;;;;;;;;5074835;28;20241;-80
2022/06/21 10:14:24;;;;;;;0.93;0.93;;;;;;;;;;5076091;28;20691;-81
2022/06/21 10:17:36;;;;;;;1.08;0.98;;;;;;;;;;5075552;28;20259;-80
2022/06/21 10:20:34;;;;;;;2.17;1.80;;;;;;;;;;5033997;28;20288;-81
2022/06/21 10:23:16;;;;;;;0.77;0.77;;;;;;;;;;5061386;28;20619;-80
2022/06/21 10:25:57;;;;;;;0.90;0.90;;;;;;;;;;5074868;28;20719;-80
2022/06/21 10:29:00;;;;;;;0.80;0.80;;;;;;;;;;5074989;28;20255;-80
2022/06/21 10:31:56;;;;;;;0.47;0.47;;;;;;;;;;5075931;28;20287;-80
2022/06/21 10:34:48;;;;;;;0.77;0.77;;;;;;;;;;5074869;28;20623;-80
2022/06/21 10:37:28;;;;;;;1.77;0.70;;;;;;;;;;5075416;28;20764;-80
2022/06/21 10:40:34;;;;;;;1.50;0.82;;;;;;;;;;5073794;28;20684;-80
2022/06/21 10:43:32;;;;;;;0.50;0.50;;;;;;;;;;5074321;28;20648;-81
2022/06/21 10:46:04;;;;;;;0.88;0.88;;;;;;;;;;5067749;28;20360;-81
2022/06/21 10:48:58;;;;;;;0.82;0.60;;;;;;;;;;5075470;28;20248;-80
2022/06/21 10:51:41;;;;;;;0.50;0.50;;;;;;;;;;5075625;28;20576;-80
2022/06/21 10:54:35;;;;;;;1.17;1.10;;;;;;;;;;5076065;28;20216;-80
2022/06/21 10:57:12;;;;;;;0.60;0.60;;;;;;;;;;5075680;28;20242;-80
2022/06/21 11:03:02;;;;;;;0.60;0.60;;;;;;;;;;5075661;28;20267;-81
2022/06/21 11:05:38;;;;;;;0.68;0.68;;;;;;;;;;5075860;28;20295;-81
2022/06/21 11:08:12;;;;;;;0.63;0.63;;;;;;;;;;5074612;28;20307;-80
2022/06/21 11:10:46;;;;;;;1.23;0.70;;;;;;;;;;5074626;28;20664;-80
2022/06/21 11:13:16;;;;;;;0.82;0.82;;;;;;;;;;5073982;28;20292;-81
2022/06/21 11:15:55;;;;;;;0.57;0.50;;;;;;;;;;5075193;28;20201;-81
2022/06/21 11:18:47;;;;;;;0.85;0.80;;;;;;;;;;5074717;28;20217;-81
2022/06/21 11:21:30;;;;;;;0.88;0.88;;;;;;;;;;5074456;28;20197;-81
2022/06/21 11:24:11;;;;;;;0.85;0.77;;;;;;;;;;5073918;28;20291;-81
2022/06/21 11:26:45;;;;;;;2.97;1.63;;;;;;;;;;5073837;28;20336;-81
2022/06/21 11:29:25;;;;;;;0.77;0.77;;;;;;;;;;5073921;28;20205;-80
2022/06/21 11:31:59;;;;;;;0.55;0.55;;;;;;;;;;5073348;28;20235;-81
2022/06/21 11:34:38;;;;;;;0.60;0.60;;;;;;;;;;5074888;28;20211;-82
2022/06/21 11:37:17;;;;;;;1.10;1.10;;;;;;;;;;5074485;28;20240;-80
2022/06/21 11:39:59;;;;;;;0.95;0.80;;;;;;;;;;5071044;28;20545;-80
2022/06/21 11:42:30;;;;;;;0.60;0.60;;;;;;;;;;5072332;28;20204;-80
2022/06/21 11:45:33;;;;;;;0.80;0.80;;;;;;;;;;5073939;28;20216;-80
2022/06/21 11:48:21;;;;;;;0.70;0.70;;;;;;;;;;5075219;28;20263;-80
2022/06/21 11:51:00;;;;;;;0.75;0.75;;;;;;;;;;5072448;28;20266;-81
2022/06/21 11:53:44;;;;;;;0.52;0.52;;;;;;;;;;5111824;22;20318;-81
2022/06/21 11:56:23;;;;;;;0.70;0.70;;;;;;;;;;5092340;28;20204;-81
2022/06/21 11:58:58;;;;;;;0.70;0.70;;;;;;;;;;5092099;28;20684;-81
2022/06/21 12:01:31;;;;;;;0.70;0.70;;;;;;;;;;5071963;28;20284;-81
2022/06/21 12:04:13;;;;;;;0.60;0.60;;;;;;;;;;5071828;28;20292;-81
2022/06/21 12:06:47;;;;;;;0.60;0.60;;;;;;;;;;5071626;28;20313;-80
2022/06/21 12:09:20;;;;;;;0.50;0.50;;;;;;;;;;5072136;28;20665;-81
2022/06/21 12:12:08;;;;;;;0.63;0.63;;;;;;;;;;5066150;28;20198;-81
2022/06/21 12:14:49;;;;;;;0.70;0.60;;;;;;;;;;5071145;28;20284;-81
2022/06/21 12:17:21;;;;;;;1.27;1.17;;;;;;;;;;5071480;28;20287;-80
2022/06/21 12:19:54;;;;;;;0.70;0.70;;;;;;;;;;5071931;28;20221;-82
2022/06/21 12:22:32;;;;;;;0.60;0.60;;;;;;;;;;5071944;28;20221;-82
2022/06/21 12:25:00;;;;;;;0.70;0.70;;;;;;;;;;5072330;28;20212;-82
2022/06/21 12:27:28;;;;;;;0.60;0.60;;;;;;;;;;5071330;28;20283;-81
2022/06/21 12:30:03;;;;;;;1.15;0.70;;;;;;;;;;5073403;28;20256;-82
2022/06/21 12:32:31;;;;;;;0.80;0.80;;;;;;;;;;5074740;28;20208;-81
2022/06/21 12:35:02;;;;;;;0.60;0.60;;;;;;;;;;5075261;28;20201;-81
2022/06/21 12:37:36;;;;;;;1.73;0.95;;;;;;;;;;5075408;28;20208;-82
2022/06/21 12:40:18;;;;;;;0.43;0.43;;;;;;;;;;5073729;28;20221;-81
2022/06/21 12:43:05;;;;;;;1.20;1.13;;;;;;;;;;5054246;28;20201;-82
2022/06/21 12:45:48;;;;;;;1.10;1.00;;;;;;;;;;5053883;28;20591;-81
2022/06/21 12:48:52;;;;;;;1.08;0.90;;;;;;;;;;5054779;28;20284;-81
2022/06/21 12:51:27;;;;;;;1.77;1.02;;;;;;;;;;5054400;28;20584;-81
2022/06/21 12:54:38;;;;;;;0.80;0.80;;;;;;;;;;5054343;28;20255;-81
2022/06/21 12:57:21;;;;;;;0.80;0.80;;;;;;;;;;5055293;28;20206;-82
2022/06/21 13:00:07;;;;;;;0.80;0.80;;;;;;;;;;5054825;28;20321;-81
2022/06/21 13:03:19;;;;;;;1.55;1.00;;;;;;;;;;5053897;28;20201;-81
2022/06/21 13:06:02;;;;;;;1.27;1.25;;;;;;;;;;5054604;28;20288;-82
2022/06/21 13:09:10;;;;;;;1.08;1.00;;;;;;;;;;5054306;28;20204;-80
2022/06/21 13:12:07;;;;;;;0.90;0.90;;;;;;;;;;5065262;28;20207;-81
2022/06/21 13:15:00;;;;;;;0.90;0.90;;;;;;;;;;5033923;28;20252;-80
2022/06/21 13:18:00;;;;;;;1.02;0.90;;;;;;;;;;5074240;28;20285;-80
2022/06/21 13:20:35;;;;;;;0.80;0.80;;;;;;;;;;5074591;28;20231;-80
2022/06/21 13:23:09;;;;;;;1.00;0.80;;;;;;;;;;5073845;28;20204;-82
2022/06/21 13:25:53;;;;;;;0.80;0.80;;;;;;;;;;5074286;28;20287;-80
2022/06/21 13:28:54;;;;;;;1.40;1.30;;;;;;;;;;5074090;28;20225;-80
2022/06/21 13:31:30;;;;;;;0.70;0.70;;;;;;;;;;5074373;28;20201;-81
2022/06/21 13:34:04;;;;;;;1.35;0.70;;;;;;;;;;5073657;28;20292;-80
2022/06/21 13:36:40;;;;;;;1.00;1.00;;;;;;;;;;5073938;28;20286;-80
2022/06/21 13:39:26;;;;;;;0.50;0.50;;;;;;;;;;5072531;28;20212;-81
2022/06/21 13:44:54;;;;;;;0.70;0.70;;;;;;;;;;5073010;28;20208;-81
2022/06/21 13:47:26;;;;;;;0.45;0.45;;;;;;;;;;5073875;28;20227;-80
2022/06/21 13:50:04;;;;;;;0.80;0.80;;;;;;;;;;5073614;28;20581;-81
2022/06/21 13:52:38;;;;;;;0.82;0.82;;;;;;;;;;5072892;28;20215;-80
2022/06/21 13:55:15;;;;;;;0.57;0.57;;;;;;;;;;5074147;28;20295;-81
2022/06/21 13:57:53;;;;;;;0.73;0.73;;;;;;;;;;5073680;28;20239;-81
2022/06/21 14:00:35;;;;;;;0.73;0.73;;;;;;;;;;5073820;28;20216;-79
2022/06/21 14:03:15;;;;;;;1.15;0.88;;;;;;;;;;5072477;28;20197;-81
2022/06/21 14:05:50;;;;;;;0.80;0.80;;;;;;;;;;5073689;28;20283;-81
2022/06/21 14:08:25;;;;;;;0.90;0.90;;;;;;;;;;5073695;28;20220;-81
2022/06/21 14:10:56;;;;;;;1.10;0.85;;;;;;;;;;5073786;28;20224;-81
2022/06/21 14:13:27;;;;;;;1.13;1.02;;;;;;;;;;5073452;28;20292;-81
2022/06/21 14:16:03;;;;;;;1.85;0.80;;;;;;;;;;5072737;28;20293;-81
2022/06/21 14:18:36;;;;;;;0.80;0.80;;;;;;;;;;5073438;28;20209;-81
2022/06/21 14:21:10;;;;;;;0.80;0.80;;;;;;;;;;5073354;28;20312;-81
2022/06/21 14:23:43;;;;;;;0.80;0.80;;;;;;;;;;5072607;28;20231;-81
2022/06/21 14:26:19;;;;;;;0.93;0.93;;;;;;;;;;5073325;28;20259;-81
2022/06/21 14:28:50;;;;;;;1.17;1.08;;;;;;;;;;5072840;28;20309;-81
2022/06/21 14:31:26;;;;;;;1.67;1.10;;;;;;;;;;5073305;28;20236;-81
2022/06/21 14:33:59;;;;;;;0.93;0.93;;;;;;;;;;5072289;28;20291;-81
2022/06/21 14:36:32;;;;;;;0.70;0.70;;;;;;;;;;5072887;28;20691;-82
2022/06/21 14:39:06;;;;;;;1.10;1.00;;;;;;;;;;5071061;28;20303;-81
2022/06/21 14:41:38;;;;;;;0.88;0.88;;;;;;;;;;5072752;28;20209;-82
2022/06/21 14:44:15;;;;;;;1.58;1.00;;;;;;;;;;5075134;28;20656;-81
2022/06/21 14:46:49;;;;;;;0.93;0.93;;;;;;;;;;5072745;28;20299;-81
2022/06/21 14:49:24;;;;;;;0.98;0.98;;;;;;;;;;5072553;28;20226;-82
2022/06/21 14:52:20;;;;;;;1.38;1.00;;;;;;;;;;5072127;28;20207;-81
2022/06/21 14:55:09;;;;;;;1.30;1.10;;;;;;;;;;5072158;28;20258;-80
2022/06/21 14:57:56;;;;;;;1.17;1.10;;;;;;;;;;5072551;28;20203;-81
2022/06/21 15:00:31;;;;;;;0.98;0.98;;;;;;;;;;5072489;28;20315;-81
2022/06/21 15:03:14;;;;;;;1.00;1.00;;;;;;;;;;5071942;28;20240;-82
2022/06/21 15:06:07;;;;;;;0.90;0.90;;;;;;;;;;5072858;28;20215;-82
2022/06/21 15:08:49;;;;;;;1.10;1.00;;;;;;;;;;5072427;28;20288;-81
2022/06/21 15:14:09;;;;;;;0.90;0.90;;;;;;;;;;5071499;28;20331;-81
2022/06/21 15:16:52;;;;;;;1.23;1.05;;;;;;;;;;5072413;28;20284;-81
2022/06/21 15:22:30;;;;;;;0.80;0.80;;;;;;;;;;5072165;28;20672;-82
2022/06/21 15:25:01;;;;;;;1.25;1.20;;;;;;;;;;5072761;28;20609;-82
2022/06/21 15:27:34;;;;;;;0.70;0.70;;;;;;;;;;5072529;28;20221;-82
2022/06/21 15:30:03;;;;;;;0.73;0.73;;;;;;;;;;5072280;28;20261;-81
2022/06/21 15:32:37;;;;;;;1.10;1.00;;;;;;;;;;5070912;28;20292;-82
2022/06/21 15:35:08;;;;;;;1.05;1.05;;;;;;;;;;5071995;28;20199;-83
2022/06/21 15:37:44;;;;;;;1.38;1.27;;;;;;;;;;5072265;28;20288;-82
2022/06/21 15:40:16;;;;;;;0.80;0.80;;;;;;;;;;5070612;28;20227;-82
2022/06/21 15:42:50;;;;;;;0.90;0.90;;;;;;;;;;5051095;28;20239;-83
2022/06/21 15:45:23;;;;;;;0.90;0.90;;;;;;;;;;5052432;28;20263;-83
2022/06/21 15:51:00;;;;;;;1.38;1.02;;;;;;;;;;5051966;28;20225;-82
2022/06/21 15:53:56;;;;;;;1.05;0.90;;;;;;;;;;5051030;28;20300;-82
2022/06/21 15:56:39;;;;;;;1.85;0.80;;;;;;;;;;5048151;28;20237;-82
2022/06/21 15:59:24;;;;;;;0.60;0.60;;;;;;;;;;5053848;28;20440;-81
2022/06/21 16:02:03;;;;;;;0.90;0.68;;;;;;;;;;5053040;28;20791;-81